sensor_id;sensor_type;location;lat;lon;timestamp;pressure;altitude;pressure_sealevel;temperature;humidity
62634;BME280;48704;50.534;6.442;2024-02-26T00:01:23;93536.69;;;3.38;100.00
62634;BME280;48704;50.534;6.442;2024-02-26T00:03:48;93528.50;;;3.43;100.00
62634;BME280;48704;50.534;6.442;2024-02-26T00:06:14;93523.50;;;3.62;100.00
62634;BME280;48704;50.534;6.442;2024-02-26T00:08:39;93528.66;;;3.54;100.00
62634;BME280;48704;50.534;6.442;2024-02-26T00:11:04;93530.38;;;3.52;100.00
62634;BME280;48704;50.534;6.442;2024-02-26T00:13:30;93526.22;;;3.42;100.00
62634;BME280;48704;50.534;6.442;2024-02-26T00:15:55;93525.13;;;3.54;100.00
62634;BME280;48704;50.534;6.442;2024-02-26T00:18:20;93525.69;;;3.58;100.00
62634;BME280;48704;50.534;6.442;2024-02-26T00:20:45;93523.84;;;3.69;100.00
62634;BME280;48704;50.534;6.442;2024-02-26T00:23:11;93533.09;;;3.72;100.00
62634;BME280;48704;50.534;6.442;2024-02-26T00:25:36;93528.63;;;3.75;100.00
62634;BME280;48704;50.534;6.442;2024-02-26T00:28:03;93530.78;;;3.45;100.00
62634;BME280;48704;50.534;6.442;2024-02-26T00:30:29;93536.28;;;3.65;100.00
62634;BME280;48704;50.534;6.442;2024-02-26T00:32:54;93537.66;;;3.55;100.00
62634;BME280;48704;50.534;6.442;2024-02-26T00:35:19;93532.69;;;3.39;100.00
62634;BME280;48704;50.534;6.442;2024-02-26T00:37:45;93528.09;;;3.50;100.00
62634;BME280;48704;50.534;6.442;2024-02-26T00:40:11;93531.88;;;3.53;100.00
62634;BME280;48704;50.534;6.442;2024-02-26T00:42:36;93533.59;;;3.50;100.00
62634;BME280;48704;50.534;6.442;2024-02-26T00:45:02;93530.91;;;3.56;100.00
62634;BME280;48704;50.534;6.442;2024-02-26T00:47:27;93539.81;;;3.65;100.00
62634;BME280;48704;50.534;6.442;2024-02-26T00:49:52;93535.13;;;3.51;100.00
62634;BME280;48704;50.534;6.442;2024-02-26T00:52:18;93528.50;;;3.43;100.00
62634;BME280;48704;50.534;6.442;2024-02-26T00:54:43;93527.88;;;3.54;100.00
62634;BME280;48704;50.534;6.442;2024-02-26T00:57:08;93540.81;;;3.48;100.00
62634;BME280;48704;50.534;6.442;2024-02-26T00:59:34;93540.28;;;3.44;100.00
62634;BME280;48704;50.534;6.442;2024-02-26T01:01:59;93544.63;;;3.50;100.00
62634;BME280;48704;50.534;6.442;2024-02-26T01:04:27;93543.16;;;3.34;100.00
62634;BME280;48704;50.534;6.442;2024-02-26T01:06:52;93549.28;;;3.44;100.00
62634;BME280;48704;50.534;6.442;2024-02-26T01:09:18;93553.00;;;3.41;100.00
62634;BME280;48704;50.534;6.442;2024-02-26T01:11:43;93541.09;;;3.29;100.00
62634;BME280;48704;50.534;6.442;2024-02-26T01:14:09;93547.28;;;3.45;100.00
62634;BME280;48704;50.534;6.442;2024-02-26T01:16:34;93549.22;;;3.39;100.00
62634;BME280;48704;50.534;6.442;2024-02-26T01:18:59;93538.06;;;3.27;100.00
62634;BME280;48704;50.534;6.442;2024-02-26T01:21:24;93545.66;;;3.32;100.00
62634;BME280;48704;50.534;6.442;2024-02-26T01:23:50;93536.69;;;3.38;100.00
62634;BME280;48704;50.534;6.442;2024-02-26T01:26:15;93542.19;;;3.17;100.00
62634;BME280;48704;50.534;6.442;2024-02-26T01:28:40;93536.16;;;3.33;100.00
62634;BME280;48704;50.534;6.442;2024-02-26T01:31:06;93544.53;;;3.24;100.00
62634;BME280;48704;50.534;6.442;2024-02-26T01:33:33;93521.81;;;3.09;100.00
62634;BME280;48704;50.534;6.442;2024-02-26T01:35:58;93541.06;;;3.09;100.00
62634;BME280;48704;50.534;6.442;2024-02-26T01:38:25;93548.09;;;3.10;100.00
62634;BME280;48704;50.534;6.442;2024-02-26T01:40:51;93542.09;;;3.12;100.00
62634;BME280;48704;50.534;6.442;2024-02-26T01:43:16;93547.25;;;3.04;100.00
62634;BME280;48704;50.534;6.442;2024-02-26T01:45:42;93537.06;;;3.10;100.00
62634;BME280;48704;50.534;6.442;2024-02-26T01:48:07;93533.63;;;2.95;100.00
62634;BME280;48704;50.534;6.442;2024-02-26T01:50:33;93532.81;;;3.09;100.00
62634;BME280;48704;50.534;6.442;2024-02-26T01:53:00;93528.53;;;3.08;100.00
62634;BME280;48704;50.534;6.442;2024-02-26T01:55:26;93532.88;;;2.94;100.00
62634;BME280;48704;50.534;6.442;2024-02-26T01:57:53;93532.78;;;2.89;100.00
62634;BME280;48704;50.534;6.442;2024-02-26T02:00:20;93533.06;;;2.91;100.00
62634;BME280;48704;50.534;6.442;2024-02-26T02:02:46;93531.63;;;2.95;100.00
62634;BME280;48704;50.534;6.442;2024-02-26T02:05:15;93532.22;;;2.85;100.00
62634;BME280;48704;50.534;6.442;2024-02-26T02:07:41;93529.75;;;2.87;100.00
62634;BME280;48704;50.534;6.442;2024-02-26T02:10:07;93521.13;;;2.79;100.00
62634;BME280;48704;50.534;6.442;2024-02-26T02:12:33;93526.25;;;2.72;100.00
62634;BME280;48704;50.534;6.442;2024-02-26T02:15:00;93527.38;;;2.80;100.00
62634;BME280;48704;50.534;6.442;2024-02-26T02:17:26;93518.84;;;2.78;100.00
62634;BME280;48704;50.534;6.442;2024-02-26T02:19:52;93524.34;;;2.92;100.00
62634;BME280;48704;50.534;6.442;2024-02-26T02:22:18;93516.94;;;2.84;100.00
62634;BME280;48704;50.534;6.442;2024-02-26T02:24:43;93526.59;;;2.94;100.00
62634;BME280;48704;50.534;6.442;2024-02-26T02:27:08;93517.72;;;2.84;100.00
62634;BME280;48704;50.534;6.442;2024-02-26T02:29:34;93523.16;;;2.99;100.00
62634;BME280;48704;50.534;6.442;2024-02-26T02:32:01;93519.59;;;2.93;100.00
62634;BME280;48704;50.534;6.442;2024-02-26T02:34:27;93525.91;;;2.99;100.00
62634;BME280;48704;50.534;6.442;2024-02-26T02:36:53;93528.91;;;2.81;100.00
62634;BME280;48704;50.534;6.442;2024-02-26T02:39:19;93530.59;;;2.93;100.00
62634;BME280;48704;50.534;6.442;2024-02-26T02:41:45;93526.19;;;3.01;100.00
62634;BME280;48704;50.534;6.442;2024-02-26T02:44:11;93521.88;;;2.80;100.00
62634;BME280;48704;50.534;6.442;2024-02-26T02:46:36;93530.72;;;2.69;100.00
62634;BME280;48704;50.534;6.442;2024-02-26T02:49:02;93515.97;;;2.52;100.00
62634;BME280;48704;50.534;6.442;2024-02-26T02:51:27;93523.84;;;2.59;100.00
62634;BME280;48704;50.534;6.442;2024-02-26T02:53:52;93523.66;;;2.48;100.00
62634;BME280;48704;50.534;6.442;2024-02-26T02:56:18;93512.56;;;2.42;100.00
62634;BME280;48704;50.534;6.442;2024-02-26T02:58:43;93511.50;;;2.54;100.00
62634;BME280;48704;50.534;6.442;2024-02-26T03:01:09;93504.03;;;2.55;100.00
62634;BME280;48704;50.534;6.442;2024-02-26T03:03:34;93504.13;;;2.46;100.00
62634;BME280;48704;50.534;6.442;2024-02-26T03:06:02;93504.13;;;2.46;100.00
62634;BME280;48704;50.534;6.442;2024-02-26T03:08:27;93512.84;;;2.44;100.00
62634;BME280;48704;50.534;6.442;2024-02-26T03:10:52;93506.97;;;2.37;100.00
62634;BME280;48704;50.534;6.442;2024-02-26T03:13:18;93504.13;;;2.46;100.00
62634;BME280;48704;50.534;6.442;2024-02-26T03:15:43;93506.41;;;2.47;100.00
62634;BME280;48704;50.534;6.442;2024-02-26T03:18:08;93509.16;;;2.47;100.00
62634;BME280;48704;50.534;6.442;2024-02-26T03:20:34;93513.50;;;2.39;100.00
62634;BME280;48704;50.534;6.442;2024-02-26T03:22:59;93505.53;;;2.41;100.00
62634;BME280;48704;50.534;6.442;2024-02-26T03:25:24;93511.44;;;2.19;100.00
62634;BME280;48704;50.534;6.442;2024-02-26T03:27:50;93508.88;;;2.16;100.00
62634;BME280;48704;50.534;6.442;2024-02-26T03:30:15;93516.81;;;2.28;100.00
62634;BME280;48704;50.534;6.442;2024-02-26T03:32:41;93518.06;;;2.27;100.00
62634;BME280;48704;50.534;6.442;2024-02-26T03:35:06;93518.16;;;2.18;100.00
62634;BME280;48704;50.534;6.442;2024-02-26T03:37:33;93516.25;;;2.24;100.00
62634;BME280;48704;50.534;6.442;2024-02-26T03:39:58;93526.88;;;2.17;100.00
62634;BME280;48704;50.534;6.442;2024-02-26T03:42:24;93525.53;;;2.27;100.00
62634;BME280;48704;50.534;6.442;2024-02-26T03:44:49;93519.88;;;2.16;100.00
62634;BME280;48704;50.534;6.442;2024-02-26T03:47:16;93513.81;;;2.12;100.00
62634;BME280;48704;50.534;6.442;2024-02-26T03:49:41;93513.59;;;2.00;100.00
62634;BME280;48704;50.534;6.442;2024-02-26T03:52:06;93520.63;;;2.01;100.00
62634;BME280;48704;50.534;6.442;2024-02-26T03:54:38;93526.50;;;2.09;100.00
62634;BME280;48704;50.534;6.442;2024-02-26T03:57:03;93519.50;;;2.08;100.00
62634;BME280;48704;50.534;6.442;2024-02-26T03:59:29;93521.00;;;2.09;100.00
62634;BME280;48704;50.534;6.442;2024-02-26T04:01:54;93514.38;;;2.16;100.00
62634;BME280;48704;50.534;6.442;2024-02-26T04:04:20;93517.97;;;2.07;100.00
62634;BME280;48704;50.534;6.442;2024-02-26T04:06:45;93514.38;;;2.16;100.00
62634;BME280;48704;50.534;6.442;2024-02-26T04:09:12;93518.72;;;2.08;100.00
62634;BME280;48704;50.534;6.442;2024-02-26T04:11:37;93515.84;;;1.87;100.00
62634;BME280;48704;50.534;6.442;2024-02-26T04:14:03;93512.19;;;2.05;100.00
62634;BME280;48704;50.534;6.442;2024-02-26T04:16:29;93513.81;;;2.12;100.00
62634;BME280;48704;50.534;6.442;2024-02-26T04:18:54;93507.06;;;1.98;100.00
62634;BME280;48704;50.534;6.442;2024-02-26T04:21:19;93507.47;;;2.06;100.00
62634;BME280;48704;50.534;6.442;2024-02-26T04:23:45;93504.13;;;2.01;100.00
62634;BME280;48704;50.534;6.442;2024-02-26T04:26:10;93500.53;;;1.95;100.00
62634;BME280;48704;50.534;6.442;2024-02-26T04:28:36;93502.34;;;1.98;100.00
62634;BME280;48704;50.534;6.442;2024-02-26T04:31:01;93505.84;;;2.14;100.00
62634;BME280;48704;50.534;6.442;2024-02-26T04:33:27;93507.75;;;2.08;100.00
62634;BME280;48704;50.534;6.442;2024-02-26T04:35:52;93512.84;;;2.00;100.00
62634;BME280;48704;50.534;6.442;2024-02-26T04:38:18;93513.91;;;2.17;100.00
62634;BME280;48704;50.534;6.442;2024-02-26T04:40:43;93509.53;;;2.11;100.00
62634;BME280;48704;50.534;6.442;2024-02-26T04:43:08;93515.13;;;2.16;100.00
62634;BME280;48704;50.534;6.442;2024-02-26T04:45:33;93507.84;;;2.13;100.00
62634;BME280;48704;50.534;6.442;2024-02-26T04:47:59;93513.81;;;2.12;100.00
62634;BME280;48704;50.534;6.442;2024-02-26T04:50:24;93511.72;;;2.07;100.00
62634;BME280;48704;50.534;6.442;2024-02-26T04:52:50;93518.16;;;2.18;100.00
62634;BME280;48704;50.534;6.442;2024-02-26T04:55:15;93518.66;;;2.17;100.00
62634;BME280;48704;50.534;6.442;2024-02-26T04:57:40;93520.03;;;2.27;100.00
62634;BME280;48704;50.534;6.442;2024-02-26T05:00:06;93517.78;;;2.40;100.00
62634;BME280;48704;50.534;6.442;2024-02-26T05:02:31;93526.31;;;2.42;100.00
62634;BME280;48704;50.534;6.442;2024-02-26T05:04:58;93512.47;;;2.37;100.00
62634;BME280;48704;50.534;6.442;2024-02-26T05:07:24;93511.72;;;2.36;100.00
62634;BME280;48704;50.534;6.442;2024-02-26T05:09:49;93520.03;;;2.42;100.00
62634;BME280;48704;50.534;6.442;2024-02-26T05:12:15;93514.84;;;2.29;100.00
62634;BME280;48704;50.534;6.442;2024-02-26T05:14:40;93514.16;;;2.34;100.00
62634;BME280;48704;50.534;6.442;2024-02-26T05:17:06;93518.34;;;2.44;100.00
62634;BME280;48704;50.534;6.442;2024-02-26T05:19:31;93514.53;;;2.27;100.00
62634;BME280;48704;50.534;6.442;2024-02-26T05:21:57;93521.00;;;2.24;100.00
62634;BME280;48704;50.534;6.442;2024-02-26T05:24:22;93514.53;;;2.27;100.00
62634;BME280;48704;50.534;6.442;2024-02-26T05:26:48;93519.22;;;2.21;100.00
62634;BME280;48704;50.534;6.442;2024-02-26T05:29:13;93520.63;;;2.31;100.00
62634;BME280;48704;50.534;6.442;2024-02-26T05:31:39;93533.50;;;2.25;100.00
62634;BME280;48704;50.534;6.442;2024-02-26T05:34:04;93522.69;;;2.36;100.00
62634;BME280;48704;50.534;6.442;2024-02-26T05:36:30;93523.66;;;2.33;100.00
62634;BME280;48704;50.534;6.442;2024-02-26T05:39:01;93531.81;;;2.42;100.00
62634;BME280;48704;50.534;6.442;2024-02-26T05:41:26;93536.16;;;2.34;100.00
62634;BME280;48704;50.534;6.442;2024-02-26T05:43:52;93538.16;;;2.48;100.00
62634;BME280;48704;50.534;6.442;2024-02-26T05:46:19;93533.13;;;2.32;100.00
62634;BME280;48704;50.534;6.442;2024-02-26T05:48:47;93533.13;;;2.32;100.00
62634;BME280;48704;50.534;6.442;2024-02-26T05:51:12;93535.69;;;2.35;100.00
62634;BME280;48704;50.534;6.442;2024-02-26T05:53:38;93543.06;;;2.29;100.00
62634;BME280;48704;50.534;6.442;2024-02-26T05:56:03;93540.72;;;2.37;100.00
62634;BME280;48704;50.534;6.442;2024-02-26T05:58:28;93538.34;;;2.30;100.00
62634;BME280;48704;50.534;6.442;2024-02-26T06:00:54;93542.03;;;2.42;100.00
62634;BME280;48704;50.534;6.442;2024-02-26T06:03:19;93554.16;;;2.35;100.00
62634;BME280;48704;50.534;6.442;2024-02-26T06:05:45;93549.03;;;2.28;100.00
62634;BME280;48704;50.534;6.442;2024-02-26T06:08:11;93555.69;;;2.36;100.00
62634;BME280;48704;50.534;6.442;2024-02-26T06:10:36;93557.78;;;2.41;100.00
62634;BME280;48704;50.534;6.442;2024-02-26T06:13:01;93552.25;;;2.26;100.00
62634;BME280;48704;50.534;6.442;2024-02-26T06:15:27;93562.50;;;2.41;100.00
62634;BME280;48704;50.534;6.442;2024-02-26T06:17:52;93561.09;;;2.45;100.00
62634;BME280;48704;50.534;6.442;2024-02-26T06:20:17;93562.50;;;2.41;100.00
62634;BME280;48704;50.534;6.442;2024-02-26T06:22:43;93567.63;;;2.48;100.00
62634;BME280;48704;50.534;6.442;2024-02-26T06:25:08;93567.81;;;2.44;100.00
62634;BME280;48704;50.534;6.442;2024-02-26T06:27:34;93573.13;;;2.48;100.00
62634;BME280;48704;50.534;6.442;2024-02-26T06:30:00;93574.63;;;2.63;100.00
62634;BME280;48704;50.534;6.442;2024-02-26T06:32:25;93586.78;;;2.42;100.00
62634;BME280;48704;50.534;6.442;2024-02-26T06:34:52;93583.94;;;2.37;100.00
62634;BME280;48704;50.534;6.442;2024-02-26T06:37:18;93593.41;;;2.50;100.00
62634;BME280;48704;50.534;6.442;2024-02-26T06:39:43;93600.06;;;2.58;100.00
62634;BME280;48704;50.534;6.442;2024-02-26T06:42:08;93594.44;;;2.67;100.00
62634;BME280;48704;50.534;6.442;2024-02-26T06:44:34;93605.34;;;2.47;100.00
62634;BME280;48704;50.534;6.442;2024-02-26T06:46:59;93611.81;;;2.44;100.00
62634;BME280;48704;50.534;6.442;2024-02-26T06:49:25;93616.63;;;2.49;100.00
62634;BME280;48704;50.534;6.442;2024-02-26T06:51:50;93615.22;;;2.54;100.00
62634;BME280;48704;50.534;6.442;2024-02-26T06:54:16;93617.88;;;2.48;100.00
62634;BME280;48704;50.534;6.442;2024-02-26T06:56:41;93621.06;;;2.61;100.00
62634;BME280;48704;50.534;6.442;2024-02-26T06:59:06;93623.38;;;2.48;100.00
62634;BME280;48704;50.534;6.442;2024-02-26T07:01:31;93618.34;;;2.61;100.00
62634;BME280;48704;50.534;6.442;2024-02-26T07:03:57;93629.06;;;2.59;100.00
62634;BME280;48704;50.534;6.442;2024-02-26T07:06:22;93626.03;;;2.57;100.00
62634;BME280;48704;50.534;6.442;2024-02-26T07:08:47;93630.19;;;2.67;100.00
62634;BME280;48704;50.534;6.442;2024-02-26T07:11:13;93625.06;;;2.60;100.00
62634;BME280;48704;50.534;6.442;2024-02-26T07:13:38;93633.59;;;2.62;100.00
62634;BME280;48704;50.534;6.442;2024-02-26T07:16:04;93634.16;;;2.66;100.00
62634;BME280;48704;50.534;6.442;2024-02-26T07:18:29;93637.97;;;2.54;100.00
62634;BME280;48704;50.534;6.442;2024-02-26T07:20:54;93648.38;;;2.65;100.00
62634;BME280;48704;50.534;6.442;2024-02-26T07:23:21;93648.56;;;2.61;100.00
62634;BME280;48704;50.534;6.442;2024-02-26T07:25:46;93648.19;;;2.68;100.00
62634;BME280;48704;50.534;6.442;2024-02-26T07:28:14;93646.97;;;2.84;100.00
62634;BME280;48704;50.534;6.442;2024-02-26T07:30:39;93650.13;;;2.92;100.00
62634;BME280;48704;50.534;6.442;2024-02-26T07:33:04;93656.09;;;2.76;100.00
62634;BME280;48704;50.534;6.442;2024-02-26T07:35:30;93655.72;;;2.83;100.00
62634;BME280;48704;50.534;6.442;2024-02-26T07:37:55;93660.34;;;2.91;100.00
62634;BME280;48704;50.534;6.442;2024-02-26T07:40:21;93663.78;;;2.86;100.00
62634;BME280;48704;50.534;6.442;2024-02-26T07:42:46;93670.13;;;2.78;100.00
62634;BME280;48704;50.534;6.442;2024-02-26T07:45:11;93669.84;;;2.76;100.00
62634;BME280;48704;50.534;6.442;2024-02-26T07:47:37;93669.84;;;2.76;100.00
62634;BME280;48704;50.534;6.442;2024-02-26T07:50:06;93679.53;;;2.86;100.00
62634;BME280;48704;50.534;6.442;2024-02-26T07:52:32;93676.94;;;2.82;100.00
62634;BME280;48704;50.534;6.442;2024-02-26T07:54:57;93684.84;;;2.89;100.00
62634;BME280;48704;50.534;6.442;2024-02-26T07:57:23;93687.59;;;2.89;100.00
62634;BME280;48704;50.534;6.442;2024-02-26T07:59:48;93687.84;;;2.77;100.00
62634;BME280;48704;50.534;6.442;2024-02-26T08:02:15;93687.28;;;2.73;100.00
62634;BME280;48704;50.534;6.442;2024-02-26T08:04:40;93688.06;;;2.88;100.00
62634;BME280;48704;50.534;6.442;2024-02-26T08:07:05;93693.75;;;2.84;100.00
62634;BME280;48704;50.534;6.442;2024-02-26T08:09:31;93690.41;;;2.80;100.00
62634;BME280;48704;50.534;6.442;2024-02-26T08:11:56;93698.09;;;2.76;100.00
62634;BME280;48704;50.534;6.442;2024-02-26T08:14:21;93702.84;;;2.76;100.00
62634;BME280;48704;50.534;6.442;2024-02-26T08:16:47;93703.03;;;2.72;100.00
62634;BME280;48704;50.534;6.442;2024-02-26T08:19:12;93710.81;;;2.74;100.00
62634;BME280;48704;50.534;6.442;2024-02-26T08:21:40;93717.09;;;2.89;100.00
62634;BME280;48704;50.534;6.442;2024-02-26T08:24:05;93718.97;;;2.83;100.00
62634;BME280;48704;50.534;6.442;2024-02-26T08:26:31;93723.72;;;2.82;100.00
62634;BME280;48704;50.534;6.442;2024-02-26T08:28:56;93730.72;;;2.98;100.00
62634;BME280;48704;50.534;6.442;2024-02-26T08:31:22;93739.47;;;2.82;100.00
62634;BME280;48704;50.534;6.442;2024-02-26T08:33:48;93741.06;;;2.74;100.00
62634;BME280;48704;50.534;6.442;2024-02-26T08:36:14;93741.34;;;2.76;100.00
62634;BME280;48704;50.534;6.442;2024-02-26T08:38:39;93746.47;;;2.83;100.00
62634;BME280;48704;50.534;6.442;2024-02-26T08:41:04;93744.75;;;2.71;100.00
62634;BME280;48704;50.534;6.442;2024-02-26T08:43:30;93749.66;;;2.66;100.00
62634;BME280;48704;50.534;6.442;2024-02-26T08:45:56;93749.66;;;2.66;100.00
62634;BME280;48704;50.534;6.442;2024-02-26T08:48:22;93758.75;;;2.58;100.00
62634;BME280;48704;50.534;6.442;2024-02-26T08:50:47;93756.38;;;2.65;100.00
62634;BME280;48704;50.534;6.442;2024-02-26T08:53:12;93755.44;;;2.54;100.00
62634;BME280;48704;50.534;6.442;2024-02-26T08:55:38;93764.47;;;2.69;100.00
62634;BME280;48704;50.534;6.442;2024-02-26T08:58:03;93765.88;;;2.64;100.00
62634;BME280;48704;50.534;6.442;2024-02-26T09:00:28;93764.56;;;2.60;100.00
62634;BME280;48704;50.534;6.442;2024-02-26T09:02:54;93777.44;;;2.68;100.00
62634;BME280;48704;50.534;6.442;2024-02-26T09:05:19;93772.41;;;2.67;100.00
62634;BME280;48704;50.534;6.442;2024-02-26T09:07:44;93778.31;;;2.75;100.00
62634;BME280;48704;50.534;6.442;2024-02-26T09:10:11;93775.63;;;2.65;100.00
62634;BME280;48704;50.534;6.442;2024-02-26T09:12:37;93775.72;;;2.95;100.00
62634;BME280;48704;50.534;6.442;2024-02-26T09:15:03;93782.53;;;2.99;100.00
62634;BME280;48704;50.534;6.442;2024-02-26T09:17:28;93780.94;;;2.93;100.00
62634;BME280;48704;50.534;6.442;2024-02-26T09:19:54;93787.84;;;3.03;100.00
62634;BME280;48704;50.534;6.442;2024-02-26T09:22:19;93791.00;;;3.11;100.00
62634;BME280;48704;50.534;6.442;2024-02-26T09:24:44;93786.94;;;3.21;100.00
62634;BME280;48704;50.534;6.442;2024-02-26T09:27:10;93795.88;;;3.30;100.00
62634;BME280;48704;50.534;6.442;2024-02-26T09:29:35;93793.47;;;3.53;100.00
62634;BME280;48704;50.534;6.442;2024-02-26T09:32:01;93793.19;;;3.51;100.00
62634;BME280;48704;50.534;6.442;2024-02-26T09:34:26;93791.28;;;3.57;100.00
62634;BME280;48704;50.534;6.442;2024-02-26T09:36:52;93793.00;;;3.69;100.00
62634;BME280;48704;50.534;6.442;2024-02-26T09:39:20;93792.88;;;3.78;100.00
62634;BME280;48704;50.534;6.442;2024-02-26T09:41:47;93794.84;;;3.92;100.00
62634;BME280;48704;50.534;6.442;2024-02-26T09:44:17;93802.59;;;4.09;100.00
62634;BME280;48704;50.534;6.442;2024-02-26T09:46:44;93809.84;;;4.06;100.00
62634;BME280;48704;50.534;6.442;2024-02-26T09:49:10;93807.56;;;4.40;100.00
62634;BME280;48704;50.534;6.442;2024-02-26T09:51:38;93812.31;;;4.39;100.00
62634;BME280;48704;50.534;6.442;2024-02-26T09:54:03;93813.00;;;4.54;100.00
62634;BME280;48704;50.534;6.442;2024-02-26T09:56:29;93814.25;;;4.53;100.00
62634;BME280;48704;50.534;6.442;2024-02-26T09:58:56;93811.63;;;4.85;100.00
62634;BME280;48704;50.534;6.442;2024-02-26T10:01:23;93815.06;;;5.00;100.00
62634;BME280;48704;50.534;6.442;2024-02-26T10:03:56;93819.44;;;5.32;100.00
62634;BME280;48704;50.534;6.442;2024-02-26T10:06:24;93817.63;;;5.50;100.00
62634;BME280;48704;50.534;6.442;2024-02-26T10:08:51;93822.97;;;5.59;100.00
62634;BME280;48704;50.534;6.442;2024-02-26T10:11:17;93813.88;;;5.53;100.00
62634;BME280;48704;50.534;6.442;2024-02-26T10:13:43;93828.06;;;5.14;100.00
62634;BME280;48704;50.534;6.442;2024-02-26T10:16:08;93839.41;;;5.22;100.00
62634;BME280;48704;50.534;6.442;2024-02-26T10:18:54;93835.75;;;5.30;100.00
62634;BME280;48704;50.534;6.442;2024-02-26T10:21:20;93833.28;;;5.12;100.00
62634;BME280;48704;50.534;6.442;2024-02-26T10:23:46;93843.09;;;5.13;100.00
62634;BME280;48704;50.534;6.442;2024-02-26T10:26:16;93835.50;;;4.88;100.00
62634;BME280;48704;50.534;6.442;2024-02-26T10:28:43;93846.81;;;4.90;100.00
62634;BME280;48704;50.534;6.442;2024-02-26T10:31:09;93849.03;;;4.65;100.00
62634;BME280;48704;50.534;6.442;2024-02-26T10:33:36;93862.13;;;4.70;100.00
62634;BME280;48704;50.534;6.442;2024-02-26T10:36:03;93857.94;;;4.75;100.00
62634;BME280;48704;50.534;6.442;2024-02-26T10:38:30;93851.25;;;4.82;100.00
62634;BME280;48704;50.534;6.442;2024-02-26T10:40:55;93860.81;;;4.86;100.00
62634;BME280;48704;50.534;6.442;2024-02-26T10:43:21;93860.53;;;4.84;100.00
62634;BME280;48704;50.534;6.442;2024-02-26T10:45:46;93864.56;;;5.03;100.00
62634;BME280;48704;50.534;6.442;2024-02-26T10:48:13;93867.66;;;5.11;100.00
62634;BME280;48704;50.534;6.442;2024-02-26T10:50:40;93877.03;;;4.99;100.00
62634;BME280;48704;50.534;6.442;2024-02-26T10:53:32;93875.88;;;5.06;100.00
62634;BME280;48704;50.534;6.442;2024-02-26T10:56:02;93875.13;;;5.05;100.00
62634;BME280;48704;50.534;6.442;2024-02-26T10:58:28;93879.88;;;5.04;100.00
62634;BME280;48704;50.534;6.442;2024-02-26T11:00:56;93886.56;;;4.98;100.00
62634;BME280;48704;50.534;6.442;2024-02-26T11:03:22;93893.59;;;4.99;100.00
62634;BME280;48704;50.534;6.442;2024-02-26T11:05:48;93892.69;;;4.87;100.00
62634;BME280;48704;50.534;6.442;2024-02-26T11:08:15;93890.69;;;4.88;100.00
62634;BME280;48704;50.534;6.442;2024-02-26T11:10:43;93892.38;;;4.80;100.00
62634;BME280;48704;50.534;6.442;2024-02-26T11:13:10;93910.84;;;4.74;100.00
62634;BME280;48704;50.534;6.442;2024-02-26T11:15:37;93901.03;;;4.73;100.00
62634;BME280;48704;50.534;6.442;2024-02-26T11:18:04;93904.09;;;4.75;100.00
62634;BME280;48704;50.534;6.442;2024-02-26T11:20:30;93913.63;;;4.94;100.00
62634;BME280;48704;50.534;6.442;2024-02-26T11:22:57;93910.97;;;4.85;100.00
62634;BME280;48704;50.534;6.442;2024-02-26T11:25:22;93915.41;;;4.77;100.00
62634;BME280;48704;50.534;6.442;2024-02-26T11:28:01;93917.41;;;4.96;100.00
62634;BME280;48704;50.534;6.442;2024-02-26T11:30:30;93920.69;;;5.15;100.00
62634;BME280;48704;50.534;6.442;2024-02-26T11:32:56;93917.38;;;5.11;100.00
62634;BME280;48704;50.534;6.442;2024-02-26T11:35:23;93914.13;;;5.13;100.00
62634;BME280;48704;50.534;6.442;2024-02-26T11:37:55;93911.69;;;5.41;100.00
62634;BME280;48704;50.534;6.442;2024-02-26T11:40:23;93909.06;;;5.31;100.00
62634;BME280;48704;50.534;6.442;2024-02-26T11:42:49;93910.22;;;5.45;100.00
62634;BME280;48704;50.534;6.442;2024-02-26T11:48:02;93909.75;;;5.26;100.00
62634;BME280;48704;50.534;6.442;2024-02-26T11:50:35;93900.63;;;5.41;100.00
62634;BME280;48704;50.534;6.442;2024-02-26T11:55:45;93914.44;;;5.20;100.00
62634;BME280;48704;50.534;6.442;2024-02-26T11:58:10;93913.91;;;5.16;100.00
62634;BME280;48704;50.534;6.442;2024-02-26T12:00:35;93918.88;;;5.12;100.00
62634;BME280;48704;50.534;6.442;2024-02-26T12:03:01;93923.44;;;5.15;100.00
62634;BME280;48704;50.534;6.442;2024-02-26T12:05:33;93929.53;;;5.19;100.00
62634;BME280;48704;50.534;6.442;2024-02-26T12:08:03;93932.81;;;5.03;100.00
62634;BME280;48704;50.534;6.442;2024-02-26T12:10:41;93934.88;;;5.08;100.00
62634;BME280;48704;50.534;6.442;2024-02-26T12:13:15;93939.69;;;4.93;100.00
62634;BME280;48704;50.534;6.442;2024-02-26T12:15:45;93946.97;;;5.11;100.00
62634;BME280;48704;50.534;6.442;2024-02-26T12:18:16;93951.44;;;5.08;100.00
62634;BME280;48704;50.534;6.442;2024-02-26T12:20:42;93951.72;;;5.10;100.00
62634;BME280;48704;50.534;6.442;2024-02-26T12:23:14;93966.50;;;5.07;100.00
62634;BME280;48704;50.534;6.442;2024-02-26T12:25:40;93959.19;;;5.24;100.00
62634;BME280;48704;50.534;6.442;2024-02-26T12:28:06;93970.31;;;5.10;100.00
62634;BME280;48704;50.534;6.442;2024-02-26T12:30:32;93973.13;;;5.15;100.00
62634;BME280;48704;50.534;6.442;2024-02-26T12:32:58;93974.66;;;5.16;100.00
62634;BME280;48704;50.534;6.442;2024-02-26T12:35:26;93978.38;;;5.13;100.00
62634;BME280;48704;50.534;6.442;2024-02-26T12:37:53;93986.66;;;4.78;100.00
62634;BME280;48704;50.534;6.442;2024-02-26T12:40:18;93994.91;;;4.93;100.00
62634;BME280;48704;50.534;6.442;2024-02-26T12:42:44;93992.31;;;5.04;100.00
62634;BME280;48704;50.534;6.442;2024-02-26T12:45:11;93996.97;;;4.98;100.00
62634;BME280;48704;50.534;6.442;2024-02-26T12:47:41;94000.03;;;5.00;100.00
62634;BME280;48704;50.534;6.442;2024-02-26T12:50:08;94005.53;;;5.00;100.00
62634;BME280;48704;50.534;6.442;2024-02-26T12:52:39;94012.09;;;5.02;100.00
62634;BME280;48704;50.534;6.442;2024-02-26T12:55:05;94002.50;;;4.98;100.00
62634;BME280;48704;50.534;6.442;2024-02-26T12:57:37;94005.34;;;5.03;100.00
62634;BME280;48704;50.534;6.442;2024-02-26T13:00:04;94007.47;;;4.94;100.00